Terminal Aerodrome Forecast
Issued by NWS

Home | Current Version | Previous Version | Text Only | Print | Product List | Glossary On
Versions: 1 2 3 4 5 6 7 8 9 10 11 12 13 14 15 16 17
339
FTUS43 KDVN 091129
TAFCID
TAF
KCID 091129Z 0912/1012 30009KT P6SM SCT025 BKN035
      TEMPO 0913/0916 BKN025
     FM092100 27004KT P6SM BKN070
     FM100600 16003KT P6SM OVC050=

USA.gov is the U.S. government's official web portal to all federal, state and local government web resources and services.